createdAt,value
2023-03-06T00:01:58.894Z,99541.80
2023-03-06T00:04:33.262Z,99546.40
2023-03-06T00:07:07.611Z,99546.20
2023-03-06T00:09:42.089Z,99541.00
2023-03-06T00:12:16.565Z,99542.80
2023-03-06T00:14:51.173Z,99542.20
2023-03-06T00:17:25.797Z,99544.80
2023-03-06T00:20:00.356Z,99543.00
2023-03-06T00:22:34.665Z,99542.40
2023-03-06T00:25:13.818Z,99542.80
2023-03-06T00:27:48.551Z,99541.20
2023-03-06T00:30:26.233Z,99537.20
2023-03-06T00:33:00.707Z,99535.20
2023-03-06T00:35:35.349Z,99542.20
2023-03-06T00:38:11.177Z,99533.60
2023-03-06T00:40:45.581Z,99536.80
2023-03-06T00:43:19.905Z,99531.00
2023-03-06T00:45:54.183Z,99529.20
2023-03-06T00:48:28.450Z,99530.20
2023-03-06T00:51:03.158Z,99529.20
2023-03-06T00:53:37.960Z,99524.60
2023-03-06T00:56:13.492Z,99526.60
2023-03-06T00:58:47.847Z,99524.60
2023-03-06T01:01:23.271Z,99519.80
2023-03-06T01:03:58.447Z,99516.00
2023-03-06T01:06:33.428Z,99511.20
2023-03-06T01:09:10.823Z,99505.60
2023-03-06T01:11:45.209Z,99495.20
2023-03-06T01:14:20.318Z,99499.40
2023-03-06T01:16:54.698Z,99487.40
2023-03-06T01:19:28.952Z,99491.20
2023-03-06T01:22:03.421Z,99491.60
2023-03-06T01:24:39.222Z,99482.40
2023-03-06T01:27:13.579Z,99483.40
2023-03-06T01:29:48.949Z,99474.80
2023-03-06T01:32:23.353Z,99469.00
2023-03-06T01:34:58.400Z,99468.40
2023-03-06T01:37:32.697Z,99464.80
2023-03-06T01:40:09.751Z,99454.80
2023-03-06T01:42:46.784Z,99454.00
2023-03-06T01:46:38.121Z,99453.00
2023-03-06T01:49:26.525Z,99448.80
2023-03-06T01:52:08.108Z,99445.20
2023-03-06T01:54:46.700Z,99443.60
2023-03-06T01:57:25.627Z,99446.00
2023-03-06T02:00:09.701Z,99445.80
2023-03-06T02:02:55.166Z,99438.20
2023-03-06T02:05:30.040Z,99441.60
2023-03-06T02:08:06.948Z,99444.00
2023-03-06T02:10:42.052Z,99440.00
2023-03-06T02:13:16.455Z,99430.60
2023-03-06T02:15:50.949Z,99426.40
2023-03-06T02:18:28.821Z,99421.40
2023-03-06T02:21:07.319Z,99423.20
2023-03-06T02:23:57.679Z,99423.20
2023-03-06T02:26:34.741Z,99422.20
2023-03-06T02:29:10.846Z,99413.20
2023-03-06T02:31:45.181Z,99411.80
2023-03-06T02:34:55.062Z,99414.60
2023-03-06T02:37:31.133Z,99409.20
2023-03-06T02:40:18.102Z,99404.20
2023-03-06T02:42:56.573Z,99396.40
2023-03-06T02:45:38.561Z,99397.20
2023-03-06T02:48:14.204Z,99389.00
2023-03-06T02:50:49.996Z,99381.60
2023-03-06T02:53:25.211Z,99380.60
2023-03-06T02:55:59.497Z,99380.40
2023-03-06T02:58:33.825Z,99379.80
2023-03-06T03:01:09.375Z,99374.20
2023-03-06T03:03:43.919Z,99373.00
2023-03-06T03:06:18.392Z,99373.00
2023-03-06T03:08:52.981Z,99368.60
2023-03-06T03:11:27.937Z,99369.40
2023-03-06T03:14:04.530Z,99365.40
2023-03-06T03:16:39.364Z,99365.80
2023-03-06T03:19:13.932Z,99361.60
2023-03-06T03:21:48.463Z,99359.80
2023-03-06T03:24:23.028Z,99351.20
2023-03-06T03:26:57.964Z,99347.80
2023-03-06T03:29:32.681Z,99346.00
2023-03-06T03:32:08.278Z,99343.80
2023-03-06T03:34:43.704Z,99345.20
2023-03-06T03:37:18.020Z,99337.40
2023-03-06T03:39:52.848Z,99337.60
2023-03-06T03:42:28.157Z,99333.00
2023-03-06T03:45:02.553Z,99333.40
2023-03-06T03:47:37.675Z,99329.20
2023-03-06T03:50:16.395Z,99322.60
2023-03-06T03:52:51.075Z,99328.00
2023-03-06T03:55:25.790Z,99321.00
2023-03-06T03:58:00.432Z,99321.20
2023-03-06T04:00:35.834Z,99317.60
2023-03-06T04:03:16.895Z,99313.00
2023-03-06T04:05:54.464Z,99312.60
2023-03-06T04:08:29.786Z,99312.00
2023-03-06T04:11:05.595Z,99301.00
2023-03-06T04:13:39.925Z,99296.60
2023-03-06T04:16:14.350Z,99303.40
2023-03-06T04:18:48.640Z,99294.60
2023-03-06T04:21:24.108Z,99286.00
2023-03-06T04:23:58.631Z,99284.40
2023-03-06T04:26:33.362Z,99288.00
2023-03-06T04:29:07.797Z,99283.40
2023-03-06T04:31:42.163Z,99275.80
2023-03-06T04:34:16.626Z,99273.40
2023-03-06T04:36:51.335Z,99270.40
2023-03-06T04:39:25.822Z,99265.40
2023-03-06T04:42:00.217Z,99267.40
2023-03-06T04:44:34.460Z,99262.60
2023-03-06T04:47:10.392Z,99259.40
2023-03-06T04:49:44.861Z,99258.40
2023-03-06T04:52:19.321Z,99255.80
2023-03-06T04:54:53.648Z,99263.80
2023-03-06T04:57:28.283Z,99255.40
2023-03-06T05:00:03.006Z,99252.00
2023-03-06T05:02:38.146Z,99255.60
2023-03-06T05:05:15.221Z,99251.60
2023-03-06T05:07:49.973Z,99247.40
2023-03-06T05:10:24.557Z,99247.80
2023-03-06T05:12:59.246Z,99249.00
2023-03-06T05:15:33.819Z,99242.20
2023-03-06T05:18:08.702Z,99249.40
2023-03-06T05:20:43.196Z,99241.80
2023-03-06T05:23:17.804Z,99241.40
2023-03-06T05:25:52.216Z,99240.60
2023-03-06T05:28:28.718Z,99244.80
2023-03-06T05:31:03.599Z,99242.40
2023-03-06T05:33:39.042Z,99238.60
2023-03-06T05:36:14.682Z,99234.40
2023-03-06T05:38:49.204Z,99234.60
2023-03-06T05:41:23.705Z,99234.00
2023-03-06T05:43:58.949Z,99227.60
2023-03-06T05:46:33.623Z,99230.60
2023-03-06T05:49:08.044Z,99227.60
2023-03-06T05:51:42.253Z,99230.00
2023-03-06T05:54:16.661Z,99221.00
2023-03-06T05:56:51.174Z,99229.20
2023-03-06T05:59:28.159Z,99233.80
2023-03-06T06:02:05.585Z,99227.20
2023-03-06T06:04:40.109Z,99224.60
2023-03-06T06:07:18.483Z,99227.20
2023-03-06T06:09:55.944Z,99229.60
2023-03-06T06:12:31.012Z,99220.60
2023-03-06T06:15:06.631Z,99225.40
2023-03-06T06:17:41.602Z,99217.20
2023-03-06T06:20:17.452Z,99223.40
2023-03-06T06:22:52.238Z,99224.80
2023-03-06T06:25:26.593Z,99223.60
2023-03-06T06:28:01.329Z,99231.80
2023-03-06T06:30:36.451Z,99232.40
2023-03-06T06:33:11.118Z,99227.00
2023-03-06T06:35:45.372Z,99227.00
2023-03-06T06:38:20.258Z,99230.80
2023-03-06T06:41:27.197Z,99232.20
2023-03-06T06:43:49.554Z,99230.00
2023-03-06T06:47:10.791Z,99232.40
2023-03-06T06:49:19.234Z,99229.20
2023-03-06T06:51:53.581Z,99233.20
2023-03-06T06:54:28.515Z,99234.40
2023-03-06T06:57:03.089Z,99225.80
2023-03-06T06:59:37.196Z,99222.80
2023-03-06T07:02:14.110Z,99224.40
2023-03-06T07:05:02.537Z,99225.40
2023-03-06T07:07:40.311Z,99225.80
2023-03-06T07:10:20.071Z,99219.20
2023-03-06T07:12:56.645Z,99220.00
2023-03-06T07:15:31.861Z,99222.00
2023-03-06T07:18:06.534Z,99216.00
2023-03-06T07:20:41.031Z,99214.60
2023-03-06T07:23:17.495Z,99215.40
2023-03-06T07:25:52.480Z,99217.80
2023-03-06T07:28:27.314Z,99215.40
2023-03-06T07:31:02.116Z,99219.20
2023-03-06T07:33:36.643Z,99220.00
2023-03-06T07:36:14.467Z,99218.20
2023-03-06T07:38:49.600Z,99223.40
2023-03-06T07:41:24.252Z,99222.00
2023-03-06T07:43:59.763Z,99221.40
2023-03-06T07:46:34.323Z,99220.60
2023-03-06T07:49:08.635Z,99217.60
2023-03-06T07:51:43.384Z,99223.40
2023-03-06T07:54:17.687Z,99226.60
2023-03-06T07:56:54.888Z,99222.60
2023-03-06T07:59:30.476Z,99216.20
2023-03-06T08:02:04.756Z,99222.80
2023-03-06T08:04:39.554Z,99218.40
2023-03-06T08:07:14.282Z,99220.40
2023-03-06T08:09:48.474Z,99217.60
2023-03-06T08:12:23.570Z,99212.80
2023-03-06T08:14:58.324Z,99215.20
2023-03-06T08:17:32.756Z,99222.00
2023-03-06T08:20:10.501Z,99218.20
2023-03-06T08:22:45.087Z,99216.40
2023-03-06T08:25:19.296Z,99218.40
2023-03-06T08:27:53.553Z,99211.80
2023-03-06T08:30:28.109Z,99206.80
2023-03-06T08:33:02.626Z,99213.80
2023-03-06T08:35:38.506Z,99212.60
2023-03-06T08:38:13.062Z,99207.80
2023-03-06T08:40:47.696Z,99213.40
2023-03-06T08:43:22.227Z,99211.20
2023-03-06T08:45:59.862Z,99213.80
2023-03-06T08:49:29.483Z,99210.00
2023-03-06T08:52:04.787Z,99212.60
2023-03-06T08:54:40.978Z,99214.00
2023-03-06T08:57:15.172Z,99213.60
2023-03-06T08:59:49.343Z,99211.60
2023-03-06T09:02:24.082Z,99213.80
2023-03-06T09:04:59.540Z,99213.20
2023-03-06T09:07:34.604Z,99216.40
2023-03-06T09:10:14.216Z,99219.80
2023-03-06T09:12:51.974Z,99215.40
2023-03-06T09:15:28.420Z,99219.20
2023-03-06T09:18:02.939Z,99215.20
2023-03-06T09:20:37.529Z,99214.40
2023-03-06T09:23:12.136Z,99209.00
2023-03-06T09:25:46.575Z,99212.40
2023-03-06T09:28:20.923Z,99214.20
2023-03-06T09:30:56.218Z,99213.00
2023-03-06T09:33:33.403Z,99210.40
2023-03-06T09:36:11.228Z,99211.00
2023-03-06T09:38:48.019Z,99197.60
2023-03-06T09:41:32.896Z,99203.60
2023-03-06T09:44:14.740Z,99202.00
2023-03-06T09:47:31.943Z,99199.60
2023-03-06T09:50:29.079Z,99194.80
2023-03-06T09:53:21.710Z,99190.60
2023-03-06T09:56:07.174Z,99187.40
2023-03-06T09:58:50.402Z,99183.00
2023-03-06T10:01:29.748Z,99181.40
2023-03-06T10:04:24.447Z,99185.60
2023-03-06T10:07:54.101Z,99180.60
2023-03-06T10:10:41.991Z,99180.80
2023-03-06T10:13:26.590Z,99176.20
2023-03-06T10:16:21.312Z,99177.20
2023-03-06T10:18:58.367Z,99177.60
2023-03-06T10:21:46.765Z,99170.80
2023-03-06T10:24:49.476Z,99168.80
2023-03-06T10:27:43.475Z,99172.40
2023-03-06T10:30:39.937Z,99164.20
2023-03-06T10:33:30.192Z,99170.20
2023-03-06T10:36:05.265Z,99164.80
2023-03-06T10:38:40.778Z,99164.20
2023-03-06T10:41:29.540Z,99159.60
2023-03-06T10:44:26.731Z,99157.00
2023-03-06T10:47:20.748Z,99149.00
2023-03-06T10:50:07.302Z,99144.20
2023-03-06T10:52:42.545Z,99145.00
2023-03-06T10:55:33.170Z,99144.20
2023-03-06T10:58:24.362Z,99141.60
2023-03-06T11:01:25.059Z,99138.00
2023-03-06T11:04:26.139Z,99137.80
2023-03-06T11:07:20.677Z,99132.60
2023-03-06T11:10:18.428Z,99133.80
2023-03-06T11:13:06.309Z,99132.60
2023-03-06T11:15:41.413Z,99120.40
2023-03-06T11:18:36.117Z,99125.40
2023-03-06T11:21:32.305Z,99125.80
2023-03-06T11:24:19.673Z,99122.80
2023-03-06T11:27:00.892Z,99121.80
2023-03-06T11:29:43.771Z,99114.40
2023-03-06T11:32:24.019Z,99116.20
2023-03-06T11:35:07.079Z,99110.40
2023-03-06T11:37:53.317Z,99110.40
2023-03-06T11:40:38.574Z,99111.60
2023-03-06T11:43:24.558Z,99106.80
2023-03-06T11:46:08.599Z,99104.00
2023-03-06T11:48:51.081Z,99095.20
2023-03-06T11:51:31.922Z,99101.60
2023-03-06T11:54:07.796Z,99097.40
2023-03-06T11:56:58.032Z,99094.20
2023-03-06T12:00:08.203Z,99100.20
2023-03-06T12:03:30.394Z,99096.60
2023-03-06T12:06:17.737Z,99088.80
2023-03-06T12:09:06.205Z,99092.40
2023-03-06T12:11:54.948Z,99086.00
2023-03-06T12:14:45.268Z,99081.80
2023-03-06T12:17:39.444Z,99081.40
2023-03-06T12:20:41.418Z,99078.60
2023-03-06T12:23:38.394Z,99081.60
2023-03-06T12:26:41.404Z,99074.60
2023-03-06T12:29:39.852Z,99072.20
2023-03-06T12:32:39.754Z,99070.20
2023-03-06T12:36:00.974Z,99066.20
2023-03-06T12:39:06.415Z,99062.80
2023-03-06T12:41:58.592Z,99053.20
2023-03-06T12:45:03.107Z,99051.00
2023-03-06T12:47:45.791Z,99052.40
2023-03-06T12:50:28.359Z,99058.80
2023-03-06T12:53:06.788Z,99067.60
2023-03-06T12:55:47.955Z,99068.20
2023-03-06T12:58:52.965Z,99080.00
2023-03-06T13:02:08.536Z,99096.40
2023-03-06T13:05:05.198Z,99104.60
2023-03-06T13:08:05.318Z,99108.80
2023-03-06T13:10:44.964Z,99117.20
2023-03-06T13:13:43.045Z,99120.80
2023-03-06T13:16:31.481Z,99122.60
2023-03-06T13:19:20.250Z,99121.40
2023-03-06T13:22:30.761Z,99118.60
2023-03-06T13:25:52.307Z,99126.00
2023-03-06T13:28:45.106Z,99126.80
2023-03-06T13:31:50.383Z,99130.60
2023-03-06T13:37:52.496Z,99138.20
2023-03-06T13:40:38.195Z,99133.40
2023-03-06T13:43:25.201Z,99134.00
2023-03-06T13:46:15.535Z,99133.40
2023-03-06T13:49:07.308Z,99127.80
2023-03-06T13:51:44.360Z,99135.00
2023-03-06T13:54:33.941Z,99131.00
2023-03-06T13:57:41.150Z,99135.80
2023-03-06T14:00:45.505Z,99136.00
2023-03-06T14:04:16.735Z,99125.80
2023-03-06T14:07:12.639Z,99127.60
2023-03-06T14:09:51.349Z,99127.80
2023-03-06T14:12:31.793Z,99134.20
2023-03-06T14:15:17.742Z,99123.40
2023-03-06T14:18:01.690Z,99127.40
2023-03-06T14:20:46.326Z,99122.40
2023-03-06T14:23:35.686Z,99120.20
2023-03-06T14:26:17.832Z,99105.60
2023-03-06T14:29:01.766Z,99097.20
2023-03-06T14:31:42.733Z,99097.40
2023-03-06T14:34:25.508Z,99087.00
2023-03-06T14:37:05.566Z,99085.40
2023-03-06T14:39:43.046Z,99079.40
2023-03-06T14:42:24.279Z,99078.20
2023-03-06T14:45:18.711Z,99071.80
2023-03-06T14:47:57.287Z,99067.40
2023-03-06T14:50:35.654Z,99056.40
2023-03-06T14:53:18.762Z,99053.20
2023-03-06T14:55:58.221Z,99045.20
2023-03-06T14:58:37.742Z,99039.40
2023-03-06T15:01:14.787Z,99033.20
2023-03-06T15:03:53.012Z,99028.80
2023-03-06T15:06:33.318Z,99028.20
2023-03-06T15:09:16.278Z,99033.20
2023-03-06T15:12:35.049Z,99028.40
2023-03-06T15:15:31.819Z,99029.00
2023-03-06T15:18:19.834Z,99027.60
2023-03-06T15:21:06.847Z,99027.00
2023-03-06T15:23:43.925Z,99030.20
2023-03-06T15:26:33.417Z,99025.00
2023-03-06T15:29:24.327Z,99028.00
2023-03-06T15:32:29.236Z,99028.00
2023-03-06T15:35:34.654Z,99027.80
2023-03-06T15:38:32.000Z,99030.00
2023-03-06T15:41:12.729Z,99035.40
2023-03-06T15:43:47.567Z,99039.60
2023-03-06T15:46:21.785Z,99039.20
2023-03-06T15:49:03.195Z,99043.40
2023-03-06T15:51:37.901Z,99037.60
2023-03-06T15:54:12.966Z,99032.40
2023-03-06T15:56:50.929Z,99032.00
2023-03-06T15:59:33.263Z,99030.20
2023-03-06T16:02:17.769Z,99033.20
2023-03-06T16:04:53.503Z,99031.40
2023-03-06T16:07:28.400Z,99029.60
2023-03-06T16:10:03.604Z,99036.00
2023-03-06T16:12:38.847Z,99039.20
2023-03-06T16:15:23.008Z,99035.80
2023-03-06T16:17:57.683Z,99034.00
2023-03-06T16:20:33.746Z,99040.60
2023-03-06T16:23:10.584Z,99044.00
2023-03-06T16:25:48.956Z,99048.00
2023-03-06T16:28:23.496Z,99045.20
2023-03-06T16:30:58.024Z,99045.40
2023-03-06T16:33:32.528Z,99046.60
2023-03-06T16:36:15.169Z,99046.80
2023-03-06T16:38:49.694Z,99053.60
2023-03-06T16:41:25.273Z,99054.60
2023-03-06T16:43:59.855Z,99058.00
2023-03-06T16:46:38.349Z,99058.00
2023-03-06T16:49:19.322Z,99065.60
2023-03-06T16:51:55.851Z,99061.20
2023-03-06T16:54:30.785Z,99065.80
2023-03-06T16:57:05.768Z,99071.20
2023-03-06T16:59:40.101Z,99064.80
2023-03-06T17:02:15.157Z,99068.00
2023-03-06T17:04:49.961Z,99072.00
2023-03-06T17:07:24.584Z,99074.80
2023-03-06T17:09:59.567Z,99080.80
2023-03-06T17:12:34.601Z,99080.00
2023-03-06T17:15:12.546Z,99086.60
2023-03-06T17:17:47.452Z,99084.60
2023-03-06T17:20:23.912Z,99082.20
2023-03-06T17:22:58.823Z,99082.40
2023-03-06T17:25:35.144Z,99086.40
2023-03-06T17:28:10.781Z,99084.00
2023-03-06T17:30:45.710Z,99084.20
2023-03-06T17:33:20.568Z,99080.80
2023-03-06T17:36:00.648Z,99086.20
2023-03-06T17:38:35.299Z,99085.00
2023-03-06T17:41:12.459Z,99085.60
2023-03-06T17:43:47.301Z,99092.00
2023-03-06T17:46:22.644Z,99092.20
2023-03-06T17:48:57.734Z,99090.20
2023-03-06T17:51:32.130Z,99095.80
2023-03-06T17:54:06.635Z,99097.20
2023-03-06T17:56:41.713Z,99101.20
2023-03-06T17:59:19.244Z,99097.20
2023-03-06T18:01:54.029Z,99097.40
2023-03-06T18:04:28.932Z,99096.60
2023-03-06T18:07:03.921Z,99103.20
2023-03-06T18:09:38.960Z,99102.60
2023-03-06T18:12:14.125Z,99100.00
2023-03-06T18:14:49.353Z,99102.20
2023-03-06T18:17:24.031Z,99106.00
2023-03-06T18:19:58.787Z,99105.20
2023-03-06T18:22:33.905Z,99105.80
2023-03-06T18:25:10.407Z,99114.00
2023-03-06T18:27:45.113Z,99107.00
2023-03-06T18:30:21.328Z,99111.60
2023-03-06T18:32:56.490Z,99113.20
2023-03-06T18:35:31.278Z,99116.00
2023-03-06T18:38:06.294Z,99115.60
2023-03-06T18:40:42.510Z,99121.80
2023-03-06T18:43:17.567Z,99117.40
2023-03-06T18:46:00.002Z,99121.60
2023-03-06T18:48:35.665Z,99121.20
2023-03-06T18:51:14.211Z,99127.80
2023-03-06T18:53:49.586Z,99132.20
2023-03-06T18:56:25.357Z,99132.00
2023-03-06T18:59:01.885Z,99125.00
2023-03-06T19:01:37.815Z,99131.40
2023-03-06T19:04:12.859Z,99128.00
2023-03-06T19:06:48.144Z,99131.00
2023-03-06T19:09:22.841Z,99135.80
2023-03-06T19:11:58.718Z,99129.40
2023-03-06T19:14:33.561Z,99129.60
2023-03-06T19:17:08.343Z,99131.00
2023-03-06T19:19:43.226Z,99133.80
2023-03-06T19:22:18.168Z,99133.00
2023-03-06T19:24:53.227Z,99143.40
2023-03-06T19:27:28.153Z,99141.80
2023-03-06T19:30:02.684Z,99140.40
2023-03-06T19:32:37.868Z,99141.60
2023-03-06T19:35:13.652Z,99145.20
2023-03-06T19:37:48.695Z,99145.20
2023-03-06T19:40:23.727Z,99144.80
2023-03-06T19:43:59.444Z,99150.80
2023-03-06T19:46:36.372Z,99151.40
2023-03-06T19:49:16.077Z,99147.60
2023-03-06T19:51:50.828Z,99145.60
2023-03-06T19:54:26.138Z,99142.60
2023-03-06T19:57:00.623Z,99143.80
2023-03-06T19:59:35.517Z,99151.00
2023-03-06T20:02:12.846Z,99147.20
2023-03-06T20:04:47.685Z,99148.40
2023-03-06T20:07:22.318Z,99148.20
2023-03-06T20:10:00.899Z,99148.40
2023-03-06T20:12:36.329Z,99154.20
2023-03-06T20:15:13.252Z,99151.60
2023-03-06T20:17:48.200Z,99155.60
2023-03-06T20:20:23.362Z,99159.80
2023-03-06T20:23:02.654Z,99157.00
2023-03-06T20:25:39.877Z,99164.20
2023-03-06T20:28:14.406Z,99158.80
2023-03-06T20:30:49.395Z,99155.20
2023-03-06T20:33:27.194Z,99155.60
2023-03-06T20:36:02.070Z,99152.80
2023-03-06T20:38:36.670Z,99155.80
2023-03-06T20:41:16.697Z,99157.40
2023-03-06T20:43:51.305Z,99152.00
2023-03-06T20:46:26.497Z,99152.00
2023-03-06T20:49:02.034Z,99154.40
2023-03-06T20:51:39.448Z,99152.60
2023-03-06T20:54:17.145Z,99157.00
2023-03-06T20:56:53.530Z,99153.00
2023-03-06T20:59:28.660Z,99161.60
2023-03-06T21:02:03.903Z,99152.00
2023-03-06T21:04:41.140Z,99158.00
2023-03-06T21:07:17.060Z,99157.80
2023-03-06T21:09:52.335Z,99156.80
2023-03-06T21:12:26.917Z,99157.40
2023-03-06T21:15:01.402Z,99150.60
2023-03-06T21:17:35.835Z,99149.80
2023-03-06T21:20:12.883Z,99145.40
2023-03-06T21:22:47.537Z,99145.60
2023-03-06T21:25:22.355Z,99151.60
2023-03-06T21:27:57.354Z,99146.60
2023-03-06T21:30:32.908Z,99151.40
2023-03-06T21:33:10.763Z,99154.60
2023-03-06T21:35:46.222Z,99154.40
2023-03-06T21:38:21.094Z,99154.60
2023-03-06T21:40:56.083Z,99154.00
2023-03-06T21:43:31.044Z,99147.80
2023-03-06T21:46:06.362Z,99154.80
2023-03-06T21:48:41.137Z,99148.00
2023-03-06T21:51:19.085Z,99148.60
2023-03-06T21:53:54.982Z,99144.80
2023-03-06T21:56:30.619Z,99151.40
2023-03-06T21:59:05.109Z,99146.80
2023-03-06T22:01:39.850Z,99149.60
2023-03-06T22:04:14.417Z,99145.60
2023-03-06T22:06:48.890Z,99144.60
2023-03-06T22:09:23.576Z,99142.40
2023-03-06T22:11:58.412Z,99138.60
2023-03-06T22:14:32.971Z,99137.60
2023-03-06T22:17:07.653Z,99137.80
2023-03-06T22:19:43.644Z,99143.60
2023-03-06T22:22:19.073Z,99139.40
2023-03-06T22:24:53.703Z,99141.60
2023-03-06T22:27:29.904Z,99137.60
2023-03-06T22:30:04.622Z,99124.20
2023-03-06T22:32:39.062Z,99129.60
2023-03-06T22:35:14.383Z,99130.00
2023-03-06T22:37:49.387Z,99128.80
2023-03-06T22:40:24.519Z,99129.40
2023-03-06T22:56:29.624Z,99125.00
2023-03-06T22:59:04.472Z,99125.20
2023-03-06T23:01:39.802Z,99122.40
2023-03-06T23:04:15.123Z,99126.20
2023-03-06T23:06:50.318Z,99127.00
2023-03-06T23:09:26.069Z,99127.20
2023-03-06T23:12:19.188Z,99128.40
2023-03-06T23:15:13.460Z,99128.20
2023-03-06T23:18:06.713Z,99123.20
2023-03-06T23:20:59.849Z,99123.00
2023-03-06T23:23:55.580Z,99123.80
2023-03-06T23:26:34.265Z,99125.80
2023-03-06T23:29:08.675Z,99125.00
2023-03-06T23:31:43.364Z,99125.80
2023-03-06T23:34:17.707Z,99125.20
2023-03-06T23:36:52.609Z,99127.60
2023-03-06T23:39:28.006Z,99125.40
2023-03-06T23:42:02.615Z,99129.40
2023-03-06T23:44:39.176Z,99131.60
2023-03-06T23:47:13.606Z,99134.20
2023-03-06T23:49:48.200Z,99128.00
2023-03-06T23:52:23.311Z,99132.40
2023-03-06T23:54:57.914Z,99130.60
2023-03-06T23:57:34.166Z,99130.60
